Terminal Aerodrome Forecast
Issued by NWS

Home | Current Version | Previous Version | Text Only | Print | Product List | Glossary On
Versions: 1 2 3 4 5 6 7 8 9 10 11 12 13 14 15 16 17 18 19 20 21 22 23 24 25 26 27 28 29 30 31 32 33
000
FTUS41 KBOX 272345
TAFHYA
TAF
KHYA 272345Z 2800/2824 23015G25KT P6SM BKN025
     FM280200 23015KT P6SM OVC008
     FM280600 23014KT 1SM BR OVC003
     FM281300 23013KT 3SM BR BKN003
     FM281700 22017G26KT P6SM BKN008=

USA.gov is the U.S. government's official web portal to all federal, state and local government web resources and services.